createdAt,value
2022-08-22T00:00:24.422Z,96160.22
2022-08-22T00:02:47.979Z,96127.28
2022-08-22T00:02:54.938Z,96180.41
2022-08-22T00:05:55.874Z,96172.19
2022-08-22T00:08:30.028Z,96179.72
2022-08-22T00:11:25.645Z,96168.44
2022-08-22T00:14:35.398Z,96164.00
2022-08-22T00:17:36.305Z,96161.53
2022-08-22T00:20:28.441Z,96166.69
2022-08-22T00:23:16.031Z,96164.94
2022-08-22T00:26:09.625Z,96170.16
2022-08-22T00:28:41.941Z,96181.59
2022-08-22T00:31:26.592Z,96176.56
2022-08-22T00:34:02.827Z,96179.88
2022-08-22T00:36:52.553Z,96172.19
2022-08-22T00:39:40.985Z,96172.47
2022-08-22T00:42:08.235Z,96168.69
2022-08-22T00:44:47.365Z,96171.84
2022-08-22T00:47:32.477Z,96170.53
2022-08-22T00:50:17.717Z,96164.66
2022-08-22T00:53:14.316Z,96162.56
2022-08-22T00:56:04.093Z,96150.31
2022-08-22T00:59:23.392Z,96154.00
2022-08-22T01:02:03.293Z,96163.97
2022-08-22T01:04:33.009Z,96167.06
2022-08-22T01:07:38.384Z,96163.59
2022-08-22T01:10:29.492Z,96161.47
2022-08-22T01:13:14.633Z,96165.53
2022-08-22T01:15:42.788Z,96169.66
2022-08-22T01:18:18.855Z,96160.19
2022-08-22T01:21:03.931Z,96168.25
2022-08-22T01:23:49.378Z,96173.13
2022-08-22T01:26:31.855Z,96170.72
2022-08-22T01:29:40.383Z,96162.25
2022-08-22T01:32:47.808Z,96159.13
2022-08-22T01:35:42.284Z,96173.00
2022-08-22T01:38:44.752Z,96167.56
2022-08-22T01:41:30.325Z,96166.06
2022-08-22T01:44:10.656Z,96168.53
2022-08-22T01:46:57.661Z,96164.09
2022-08-22T01:49:49.084Z,96165.06
2022-08-22T01:52:28.222Z,96172.28
2022-08-22T01:55:09.388Z,96167.56
2022-08-22T01:58:04.919Z,96167.09
2022-08-22T02:00:56.027Z,96165.66
2022-08-22T02:03:27.769Z,96175.66
2022-08-22T02:06:00.484Z,96176.22
2022-08-22T02:09:05.145Z,96192.13
2022-08-22T02:11:56.063Z,96172.13
2022-08-22T02:14:36.633Z,96172.69
2022-08-22T02:17:50.392Z,96167.31
2022-08-22T02:20:31.636Z,96174.94
2022-08-22T02:23:07.386Z,96167.38
2022-08-22T02:25:56.454Z,96169.97
2022-08-22T02:28:57.001Z,96174.03
2022-08-22T02:31:36.803Z,96181.75
2022-08-22T02:34:20.592Z,96178.81
2022-08-22T02:36:50.116Z,96172.19
2022-08-22T02:39:38.564Z,96179.16
2022-08-22T02:42:23.803Z,96181.28
2022-08-22T02:45:18.339Z,96179.56
2022-08-22T02:48:15.156Z,96174.16
2022-08-22T02:50:54.375Z,96180.72
2022-08-22T02:53:32.456Z,96171.28
2022-08-22T02:56:04.793Z,96168.81
2022-08-22T02:58:59.198Z,96091.41
2022-08-22T03:01:32.334Z,96165.81
2022-08-22T03:04:18.011Z,96158.59
2022-08-22T03:07:00.702Z,96161.06
2022-08-22T03:09:33.603Z,96160.19
2022-08-22T03:12:21.465Z,96179.78
2022-08-22T03:14:51.028Z,96186.09
2022-08-22T03:17:30.651Z,96186.22
2022-08-22T03:19:57.232Z,96194.84
2022-08-22T03:22:30.024Z,96195.75
2022-08-22T03:25:37.509Z,96201.38
2022-08-22T03:28:18.289Z,96204.16
2022-08-22T03:30:56.087Z,96178.34
2022-08-22T03:33:26.395Z,96199.13
2022-08-22T03:35:58.104Z,96191.03
2022-08-22T03:38:33.453Z,96192.25
2022-08-22T03:41:24.087Z,96199.69
2022-08-22T03:44:18.944Z,96198.53
2022-08-22T03:47:04.044Z,96199.31
2022-08-22T03:49:45.755Z,96195.13
2022-08-22T03:52:34.002Z,96203.13
2022-08-22T03:55:18.259Z,96208.50
2022-08-22T03:57:54.652Z,96218.84
2022-08-22T04:00:49.041Z,96216.13
2022-08-22T04:03:41.652Z,96223.06
2022-08-22T04:06:37.615Z,96225.53
2022-08-22T04:09:50.215Z,96214.06
2022-08-22T04:12:44.785Z,96191.25
2022-08-22T04:15:48.359Z,96217.38
2022-08-22T04:18:39.659Z,96211.78
2022-08-22T04:21:16.433Z,96209.50
2022-08-22T04:24:04.729Z,96222.66
2022-08-22T04:26:34.544Z,96220.09
2022-08-22T04:29:27.322Z,96147.63
2022-08-22T04:32:12.716Z,96165.38
2022-08-22T04:34:56.697Z,96196.84
2022-08-22T04:37:31.707Z,96220.41
2022-08-22T04:40:21.880Z,96220.09
2022-08-22T04:43:03.765Z,96254.72
2022-08-22T04:45:43.854Z,96217.47
2022-08-22T04:48:22.218Z,96215.91
2022-08-22T04:50:55.455Z,96213.16
2022-08-22T04:53:34.220Z,96217.06
2022-08-22T04:56:22.549Z,96233.81
2022-08-22T04:58:58.576Z,96230.34
2022-08-22T05:01:47.072Z,96233.25
2022-08-22T05:04:18.505Z,96236.16
2022-08-22T05:06:51.116Z,96238.56
2022-08-22T05:09:25.838Z,96236.59
2022-08-22T05:11:57.830Z,96255.53
2022-08-22T05:14:33.796Z,96186.16
2022-08-22T05:17:04.371Z,96204.09
2022-08-22T05:19:36.171Z,96243.09
2022-08-22T05:22:09.125Z,96251.84
2022-08-22T05:24:46.280Z,96254.72
2022-08-22T05:27:20.318Z,96224.59
2022-08-22T05:29:50.045Z,96263.31
2022-08-22T05:32:26.388Z,96225.31
2022-08-22T05:34:59.693Z,96216.38
2022-08-22T05:37:33.341Z,96248.47
2022-08-22T05:40:01.516Z,96262.13
2022-08-22T05:42:33.204Z,96257.63
2022-08-22T05:45:06.881Z,96232.53
2022-08-22T05:47:44.482Z,96251.06
2022-08-22T05:50:19.994Z,96223.13
2022-08-22T05:53:00.109Z,96257.38
2022-08-22T05:55:29.363Z,96256.56
2022-08-22T05:58:23.999Z,96248.09
2022-08-22T06:00:58.682Z,96290.00
2022-08-22T06:03:38.509Z,96202.28
2022-08-22T06:06:14.877Z,96249.50
2022-08-22T06:08:56.872Z,96191.72
2022-08-22T06:11:39.754Z,96258.25
2022-08-22T06:14:28.974Z,96168.81
2022-08-22T06:17:10.435Z,96262.88
2022-08-22T06:19:41.985Z,96171.94
2022-08-22T06:22:11.748Z,96252.25
2022-08-22T06:24:44.311Z,96264.69
2022-08-22T06:27:14.296Z,96243.53
2022-08-22T06:29:49.361Z,96258.75
2022-08-22T06:32:34.160Z,96258.88
2022-08-22T06:35:50.434Z,96186.84
2022-08-22T06:38:20.333Z,96258.63
2022-08-22T06:40:48.713Z,96252.72
2022-08-22T06:43:16.334Z,96244.50
2022-08-22T06:45:43.250Z,96271.75
2022-08-22T06:48:09.804Z,96273.38
2022-08-22T06:50:42.678Z,96178.13
2022-08-22T06:53:16.886Z,96238.28
2022-08-22T06:55:50.436Z,96266.56
2022-08-22T06:58:23.074Z,96275.53
2022-08-22T07:01:11.067Z,96239.69
2022-08-22T07:03:45.010Z,96278.09
2022-08-22T07:06:17.375Z,96248.22
2022-08-22T07:08:45.082Z,96284.09
2022-08-22T07:11:34.039Z,96283.91
2022-08-22T07:14:08.393Z,96274.28
2022-08-22T07:16:44.338Z,96276.19
2022-08-22T07:19:24.807Z,96297.13
2022-08-22T07:21:51.997Z,96285.47
2022-08-22T07:24:25.191Z,96293.81
2022-08-22T07:27:15.952Z,96285.22
2022-08-22T07:29:46.278Z,96248.94
2022-08-22T07:32:35.306Z,96286.72
2022-08-22T07:35:13.428Z,96287.56
2022-08-22T07:37:46.311Z,96289.47
2022-08-22T07:40:23.624Z,96299.28
2022-08-22T07:42:59.738Z,96288.00
2022-08-22T07:45:47.618Z,96246.16
2022-08-22T07:48:32.809Z,96227.41
2022-08-22T07:51:15.375Z,96244.34
2022-08-22T07:54:05.113Z,96294.88
2022-08-22T07:56:37.410Z,96283.59
2022-08-22T07:59:13.231Z,96292.34
2022-08-22T08:01:48.441Z,96308.50
2022-08-22T08:04:20.868Z,96269.34
2022-08-22T08:06:50.989Z,96283.75
2022-08-22T08:09:20.458Z,96296.13
2022-08-22T08:11:51.461Z,96227.88
2022-08-22T08:14:20.992Z,96300.28
2022-08-22T08:17:18.708Z,96256.41
2022-08-22T08:19:47.379Z,96235.47
2022-08-22T08:22:24.849Z,95840.25
2022-08-22T08:24:55.722Z,96292.88
2022-08-22T08:27:45.037Z,96294.19
2022-08-22T08:30:19.630Z,96289.13
2022-08-22T08:32:57.575Z,96280.97
2022-08-22T08:36:02.977Z,96246.28
2022-08-22T08:39:14.397Z,96211.00
2022-08-22T08:42:07.037Z,96278.84
2022-08-22T08:44:52.230Z,96275.03
2022-08-22T08:47:31.664Z,96240.19
2022-08-22T08:50:10.420Z,96265.13
2022-08-22T08:52:53.325Z,96267.91
2022-08-22T08:55:38.642Z,96268.28
2022-08-22T08:58:33.955Z,96249.28
2022-08-22T09:01:07.054Z,96266.81
2022-08-22T09:04:19.554Z,96195.84
2022-08-22T09:07:01.325Z,96265.13
2022-08-22T09:09:37.416Z,96260.66
2022-08-22T09:12:17.098Z,96258.84
2022-08-22T09:15:02.614Z,96261.47
2022-08-22T09:18:03.766Z,96252.16
2022-08-22T09:20:46.405Z,96257.56
2022-08-22T09:23:43.856Z,96265.88
2022-08-22T09:26:17.143Z,96263.53
2022-08-22T09:29:07.258Z,96261.19
2022-08-22T09:32:03.495Z,96255.38
2022-08-22T09:34:34.164Z,96183.84
2022-08-22T09:37:16.919Z,96191.34
2022-08-22T09:40:17.473Z,96242.41
2022-08-22T09:42:53.032Z,96238.03
2022-08-22T09:45:24.934Z,96238.81
2022-08-22T09:48:07.203Z,96175.41
2022-08-22T09:51:08.310Z,96234.88
2022-08-22T09:54:18.823Z,96177.09
2022-08-22T09:57:01.574Z,96230.72
2022-08-22T09:59:52.282Z,96226.63
2022-08-22T10:02:56.582Z,96218.06
2022-08-22T10:05:41.043Z,96214.13
2022-08-22T10:08:14.081Z,96211.00
2022-08-22T10:11:19.003Z,96206.28
2022-08-22T10:14:01.291Z,96210.47
2022-08-22T10:16:53.182Z,96207.44
2022-08-22T10:19:42.862Z,96206.63
2022-08-22T10:22:10.035Z,96203.69
2022-08-22T10:24:55.598Z,96205.28
2022-08-22T10:27:50.967Z,96214.47
2022-08-22T10:30:22.125Z,96210.47
2022-08-22T10:32:57.034Z,96177.84
2022-08-22T10:35:33.901Z,96155.47
2022-08-22T10:38:12.428Z,96150.91
2022-08-22T10:40:48.665Z,96102.06
2022-08-22T10:43:28.852Z,96183.63
2022-08-22T10:46:13.780Z,96174.56
2022-08-22T10:48:54.807Z,96169.22
2022-08-22T10:51:46.062Z,96142.94
2022-08-22T10:54:23.166Z,96146.69
2022-08-22T10:57:06.666Z,96144.88
2022-08-22T10:59:46.019Z,96179.38
2022-08-22T11:02:23.274Z,96179.38
2022-08-22T11:05:04.492Z,96180.44
2022-08-22T11:08:02.386Z,96179.91
2022-08-22T11:10:40.935Z,96177.31
2022-08-22T11:13:29.136Z,96147.22
2022-08-22T11:16:14.075Z,96178.88
2022-08-22T11:19:04.890Z,96191.47
2022-08-22T11:21:48.570Z,96192.47
2022-08-22T11:24:56.754Z,96183.91
2022-08-22T11:27:38.307Z,96188.72
2022-08-22T11:30:36.308Z,96195.81
2022-08-22T11:33:46.599Z,96165.19
2022-08-22T11:36:30.932Z,96196.66
2022-08-22T11:39:17.940Z,96193.59
2022-08-22T11:41:53.499Z,96186.22
2022-08-22T11:44:28.273Z,96179.69
2022-08-22T11:46:58.080Z,96163.38
2022-08-22T11:49:36.730Z,96186.72
2022-08-22T11:52:15.278Z,96135.63
2022-08-22T11:55:10.377Z,96199.31
2022-08-22T11:57:44.852Z,96185.50
2022-08-22T12:00:50.311Z,96170.56
2022-08-22T12:03:27.711Z,96161.31
2022-08-22T12:06:00.340Z,96178.81
2022-08-22T12:08:29.730Z,96192.06
2022-08-22T12:10:59.856Z,96201.31
2022-08-22T12:14:02.431Z,96164.63
2022-08-22T12:16:39.277Z,96196.19
2022-08-22T12:19:32.987Z,96213.34
2022-08-22T12:22:31.118Z,96220.47
2022-08-22T12:25:11.061Z,96215.34
2022-08-22T12:27:55.306Z,96216.44
2022-08-22T12:30:46.631Z,96234.56
2022-08-22T12:33:14.263Z,96239.69
2022-08-22T12:35:57.329Z,96235.41
2022-08-22T12:38:38.959Z,96239.19
2022-08-22T12:41:38.656Z,96225.06
2022-08-22T12:44:26.939Z,96193.75
2022-08-22T12:47:25.269Z,96211.41
2022-08-22T12:50:13.572Z,96229.69
2022-08-22T12:52:49.104Z,96248.38
2022-08-22T12:55:28.195Z,96248.22
2022-08-22T12:58:00.889Z,96261.28
2022-08-22T13:00:41.598Z,96276.06
2022-08-22T13:03:13.395Z,95954.28
2022-08-22T13:05:56.864Z,96264.97
2022-08-22T13:08:32.406Z,96287.34
2022-08-22T13:11:09.832Z,96288.28
2022-08-22T13:13:56.188Z,96225.19
2022-08-22T13:16:25.663Z,96236.53
2022-08-22T13:18:57.701Z,96270.84
2022-08-22T13:21:34.655Z,96273.69
2022-08-22T13:24:11.741Z,96277.44
2022-08-22T13:26:49.144Z,96279.97
2022-08-22T13:29:39.641Z,96280.28
2022-08-22T13:32:30.817Z,96250.13
2022-08-22T13:35:00.174Z,96230.56
2022-08-22T13:37:40.771Z,96298.59
2022-08-22T13:40:15.561Z,96303.50
2022-08-22T13:42:50.113Z,96298.72
2022-08-22T13:45:27.078Z,96241.84
2022-08-22T13:48:08.966Z,96284.06
2022-08-22T13:51:12.577Z,96137.63
2022-08-22T13:54:00.871Z,96232.22
2022-08-22T13:56:47.399Z,96271.25
2022-08-22T13:59:52.518Z,96272.09
2022-08-22T14:02:24.381Z,96278.28
2022-08-22T14:05:04.307Z,96240.69
2022-08-22T14:07:40.652Z,96243.31
2022-08-22T14:10:14.770Z,96276.78
2022-08-22T14:13:20.739Z,96285.28
2022-08-22T14:15:47.799Z,96190.47
2022-08-22T14:18:30.526Z,96228.41
2022-08-22T14:21:17.215Z,96271.31
2022-08-22T14:23:45.672Z,96276.88
2022-08-22T14:26:33.020Z,96252.88
2022-08-22T14:29:12.081Z,96248.84
2022-08-22T14:31:39.129Z,96244.91
2022-08-22T14:34:13.603Z,96202.09
2022-08-22T14:37:06.107Z,96157.94
2022-08-22T14:39:46.232Z,96227.41
2022-08-22T14:42:17.731Z,96249.59
2022-08-22T14:45:06.857Z,96109.75
2022-08-22T14:48:30.028Z,96135.09
2022-08-22T14:51:01.439Z,96264.78
2022-08-22T14:53:32.148Z,96224.56
2022-08-22T14:56:06.425Z,96229.84
2022-08-22T14:58:37.889Z,96216.72
2022-08-22T15:01:11.869Z,96209.47
2022-08-22T15:03:40.752Z,96202.03
2022-08-22T15:06:29.006Z,96169.13
2022-08-22T15:08:57.340Z,96132.56
2022-08-22T15:11:31.811Z,96201.44
2022-08-22T15:14:07.067Z,96207.22
2022-08-22T15:16:46.418Z,96203.63
2022-08-22T15:19:35.939Z,96201.69
2022-08-22T15:22:16.739Z,96195.94
2022-08-22T15:24:49.489Z,96174.19
2022-08-22T15:27:20.550Z,96196.59
2022-08-22T15:29:55.604Z,96204.91
2022-08-22T15:32:35.759Z,96201.06
2022-08-22T15:35:16.406Z,96205.78
2022-08-22T15:38:02.967Z,96190.88
2022-08-22T15:40:45.755Z,96142.81
2022-08-22T15:43:33.656Z,96190.88
2022-08-22T15:46:26.001Z,96163.75
2022-08-22T15:49:23.507Z,96197.97
2022-08-22T15:52:14.399Z,96192.69
2022-08-22T15:54:53.333Z,96198.91
2022-08-22T15:57:35.093Z,96117.34
2022-08-22T16:00:05.219Z,96192.25
2022-08-22T16:02:53.485Z,96191.28
2022-08-22T16:05:37.112Z,96166.59
2022-08-22T16:08:11.874Z,96199.09
2022-08-22T16:10:45.512Z,96192.47
2022-08-22T16:13:27.508Z,96192.84
2022-08-22T16:16:08.461Z,96198.31
2022-08-22T16:18:37.695Z,96209.41
2022-08-22T16:21:08.174Z,96210.25
2022-08-22T16:23:49.901Z,96206.53
2022-08-22T16:26:30.360Z,96205.81
2022-08-22T16:29:17.488Z,96196.59
2022-08-22T16:31:44.882Z,96204.38
2022-08-22T16:34:17.798Z,96210.34
2022-08-22T16:37:08.725Z,96212.69
2022-08-22T16:39:49.973Z,96217.97
2022-08-22T16:42:19.493Z,96227.16
2022-08-22T16:44:46.087Z,96229.69
2022-08-22T16:47:21.666Z,96233.22
2022-08-22T16:49:51.392Z,96231.69
2022-08-22T16:52:21.199Z,96222.78
2022-08-22T16:54:49.393Z,96200.09
2022-08-22T16:57:22.364Z,96214.56
2022-08-22T17:00:11.368Z,96224.97
2022-08-22T17:02:50.357Z,96236.91
2022-08-22T17:05:37.571Z,96226.84
2022-08-22T17:08:39.437Z,96249.97
2022-08-22T17:11:21.143Z,96235.69
2022-08-22T17:14:00.574Z,96243.19
2022-08-22T17:16:42.736Z,96234.44
2022-08-22T17:19:40.170Z,96237.56
2022-08-22T17:22:36.547Z,96272.09
2022-08-22T17:25:24.266Z,96238.81
2022-08-22T17:28:09.064Z,96241.34
2022-08-22T17:30:46.566Z,96266.56
2022-08-22T17:33:23.462Z,96261.72
2022-08-22T17:36:26.677Z,96283.66
2022-08-22T17:39:25.015Z,96285.53
2022-08-22T17:42:21.110Z,96226.41
2022-08-22T17:44:54.906Z,96287.69
2022-08-22T17:47:30.979Z,96293.63
2022-08-22T17:50:18.596Z,96281.50
2022-08-22T17:52:46.108Z,96293.72
2022-08-22T17:55:40.456Z,96302.78
2022-08-22T17:58:36.057Z,96307.25
2022-08-22T18:01:15.082Z,96311.38
2022-08-22T18:03:50.612Z,96306.00
2022-08-22T18:06:26.560Z,96301.91
2022-08-22T18:09:23.296Z,96272.78
2022-08-22T18:11:54.540Z,96289.69
2022-08-22T18:14:29.278Z,96291.56
2022-08-22T18:16:59.302Z,96272.53
2022-08-22T18:19:50.286Z,96285.00
2022-08-22T18:22:27.446Z,96222.91
2022-08-22T18:24:54.132Z,96295.50
2022-08-22T18:27:34.266Z,96303.03
2022-08-22T18:30:08.515Z,96252.22
2022-08-22T18:32:49.704Z,96317.25
2022-08-22T18:35:23.675Z,96311.38
2022-08-22T18:38:19.320Z,96315.44
2022-08-22T18:40:54.589Z,96307.94
2022-08-22T18:43:36.963Z,96252.25
2022-08-22T18:46:38.695Z,96320.94
2022-08-22T18:49:16.007Z,96318.63
2022-08-22T18:51:43.359Z,96323.53
2022-08-22T18:54:11.485Z,96328.91
2022-08-22T18:56:47.826Z,96327.22
2022-08-22T18:59:17.222Z,96331.94
2022-08-22T19:02:01.460Z,96304.66
2022-08-22T19:04:47.433Z,96344.16
2022-08-22T19:07:32.923Z,96338.50
2022-08-22T19:10:05.659Z,96343.59
2022-08-22T19:12:55.462Z,96352.50
2022-08-22T19:15:53.272Z,96398.78
2022-08-22T19:18:55.990Z,96377.56
2022-08-22T19:21:47.135Z,96365.28
2022-08-22T19:24:19.671Z,96376.66
2022-08-22T19:27:18.115Z,96375.72
2022-08-22T19:29:44.796Z,96375.97
2022-08-22T19:32:46.556Z,96372.91
2022-08-22T19:35:37.348Z,96311.22
2022-08-22T19:38:07.244Z,96365.38
2022-08-22T19:40:46.016Z,96377.28
2022-08-22T19:43:46.713Z,96383.78
2022-08-22T19:46:14.941Z,96389.31
2022-08-22T19:48:49.062Z,96393.56
2022-08-22T19:51:22.045Z,96407.13
2022-08-22T19:54:16.996Z,96410.69
2022-08-22T19:57:16.760Z,96413.28
2022-08-22T20:00:21.883Z,96409.78
2022-08-22T20:03:05.017Z,96423.16
2022-08-22T20:05:37.413Z,96409.53
2022-08-22T20:08:41.724Z,96381.44
2022-08-22T20:11:37.819Z,96414.75
2022-08-22T20:14:24.959Z,96420.13
2022-08-22T20:17:24.348Z,96410.44
2022-08-22T20:22:39.289Z,96385.16
2022-08-22T20:25:41.759Z,96396.22
2022-08-22T20:28:08.579Z,96396.34
2022-08-22T20:30:45.715Z,96402.41
2022-08-22T20:33:32.729Z,96355.53
2022-08-22T20:36:05.211Z,96383.84
2022-08-22T20:38:38.223Z,96345.63
2022-08-22T20:41:26.209Z,96385.00
2022-08-22T20:44:18.872Z,96387.38
2022-08-22T20:46:46.023Z,96387.84
2022-08-22T20:49:40.823Z,96388.03
2022-08-22T20:52:23.046Z,96388.94
2022-08-22T20:55:08.276Z,96391.66
2022-08-22T20:57:46.138Z,96393.78
2022-08-22T21:00:16.598Z,96393.31
2022-08-22T21:03:04.387Z,96394.03
2022-08-22T21:05:49.174Z,96378.94
2022-08-22T21:08:20.597Z,96393.91
2022-08-22T21:11:16.507Z,96387.81
2022-08-22T21:13:43.363Z,96396.72
2022-08-22T21:16:19.095Z,96384.56
2022-08-22T21:18:51.532Z,96386.38
2022-08-22T21:21:20.607Z,96276.00
2022-08-22T21:23:49.837Z,96371.06
2022-08-22T21:26:19.522Z,96374.34
2022-08-22T21:28:49.137Z,96365.19
2022-08-22T21:31:22.637Z,96373.44
2022-08-22T21:33:50.947Z,96369.81
2022-08-22T21:36:20.503Z,96368.81
2022-08-22T21:38:54.400Z,96301.63
2022-08-22T21:41:39.320Z,96372.31
2022-08-22T21:44:38.242Z,96371.28
2022-08-22T21:47:31.392Z,96367.56
2022-08-22T21:50:06.785Z,96355.84
2022-08-22T21:52:36.135Z,96324.13
2022-08-22T21:55:29.872Z,96349.63
2022-08-22T21:58:05.504Z,96340.50
2022-08-22T22:00:49.365Z,96328.56
2022-08-22T22:03:19.248Z,96296.00
2022-08-22T22:05:46.276Z,96347.03
2022-08-22T22:08:13.303Z,96350.06
2022-08-22T22:10:42.169Z,96356.72
2022-08-22T22:13:09.973Z,96284.06
2022-08-22T22:15:44.135Z,96354.56
2022-08-22T22:18:13.079Z,96355.47
2022-08-22T22:20:40.039Z,96346.66
2022-08-22T22:23:06.777Z,96345.31
2022-08-22T22:25:39.563Z,96299.88
2022-08-22T22:28:15.946Z,96348.59
2022-08-22T22:30:44.142Z,96355.13
2022-08-22T22:33:11.324Z,96359.84
2022-08-22T22:35:40.187Z,96344.56
2022-08-22T22:38:07.867Z,96295.75
2022-08-22T22:40:35.282Z,96328.78
2022-08-22T22:43:02.017Z,96322.81
2022-08-22T22:45:28.918Z,96315.28
2022-08-22T22:47:55.642Z,96313.25
2022-08-22T22:50:22.357Z,96300.66
2022-08-22T22:52:49.062Z,96320.31
2022-08-22T22:55:24.753Z,96321.91
2022-08-22T22:57:59.323Z,96336.59
2022-08-22T23:00:30.630Z,96335.56
2022-08-22T23:03:02.146Z,96336.16
2022-08-22T23:05:30.381Z,96340.66
2022-08-22T23:07:57.757Z,96341.47
2022-08-22T23:10:25.621Z,96335.72
2022-08-22T23:12:52.268Z,96335.50
2022-08-22T23:15:18.923Z,96338.28
2022-08-22T23:17:45.751Z,96282.38
2022-08-22T23:20:12.721Z,96341.31
2022-08-22T23:22:41.608Z,96336.94
2022-08-22T23:25:09.257Z,96341.44
2022-08-22T23:27:36.672Z,96317.16
2022-08-22T23:30:05.605Z,96313.75
2022-08-22T23:32:32.994Z,96342.84
2022-08-22T23:34:59.633Z,96348.09
2022-08-22T23:37:26.331Z,96347.56
2022-08-22T23:39:53.117Z,96267.31
2022-08-22T23:42:19.831Z,96361.63
2022-08-22T23:44:46.559Z,96324.78
2022-08-22T23:47:14.253Z,96350.44
2022-08-22T23:49:42.655Z,96317.72
2022-08-22T23:52:12.220Z,96346.03
2022-08-22T23:54:40.116Z,96357.28
2022-08-22T23:57:11.461Z,96339.31
2022-08-22T23:59:46.525Z,96347.28
